Time;durP1;ratioP1;P1;durP2;ratioP2;P2;SDS_P1;SDS_P2;PMS_P1;PMS_P2;Temp;Humidity;BMP_temperature;BMP_pressure;BME280_temperature;BME280_humidity;BME280_pressure;Samples;Min_cycle;Max_cycle;Signal;HPM_P1;HPM_P2
2023/07/22 00:01:52;;;;;;;5.68;4.18;;;;;;;19.48;48.22;101340.88;5141421;27;20043;-66
2023/07/22 00:04:20;;;;;;;8.07;5.22;;;;;;;19.46;48.22;101332.13;5141378;27;20043;-67
2023/07/22 00:06:48;;;;;;;6.93;4.95;;;;;;;19.46;48.22;101337.59;5141942;27;20077;-67
2023/07/22 00:09:16;;;;;;;7.80;4.88;;;;;;;19.45;48.29;101330.50;5141701;27;20104;-67
2023/07/22 00:11:43;;;;;;;11.27;5.68;;;;;;;19.43;48.16;101338.94;5141036;27;20047;-67
2023/07/22 00:14:13;;;;;;;9.40;5.80;;;;;;;19.43;48.38;101327.22;5138972;27;21339;-67
2023/07/22 00:16:41;;;;;;;8.00;5.22;;;;;;;19.39;48.51;101329.66;5144859;27;20100;-67
2023/07/22 00:19:09;;;;;;;7.90;5.32;;;;;;;19.41;48.26;101330.22;5142829;27;20043;-67
2023/07/22 00:21:37;;;;;;;7.30;5.15;;;;;;;19.41;48.32;101329.41;5143523;27;20066;-66
2023/07/22 00:24:05;;;;;;;7.25;5.30;;;;;;;19.40;48.36;101325.03;5140363;27;20123;-67
2023/07/22 00:26:33;;;;;;;7.88;5.50;;;;;;;19.39;48.24;101326.94;5141012;27;20039;-66
2023/07/22 00:29:01;;;;;;;6.32;5.38;;;;;;;19.39;48.43;101332.41;5143783;27;20096;-66
2023/07/22 00:31:30;;;;;;;7.85;5.50;;;;;;;19.37;48.34;101325.56;5144060;27;20047;-67
2023/07/22 00:33:58;;;;;;;7.72;5.50;;;;;;;19.37;48.41;101325.56;5139508;27;20046;-67
2023/07/22 00:36:26;;;;;;;8.40;5.63;;;;;;;19.36;48.41;101324.75;5144267;27;20115;-67
2023/07/22 00:38:54;;;;;;;8.77;6.15;;;;;;;19.35;48.41;101314.94;5142238;27;20048;-66
2023/07/22 00:41:22;;;;;;;7.40;5.22;;;;;;;19.34;48.39;101318.75;5143291;27;20043;-66
2023/07/22 00:43:50;;;;;;;6.72;5.25;;;;;;;19.34;48.33;101320.66;5144200;27;20043;-67
2023/07/22 00:46:18;;;;;;;9.50;5.60;;;;;;;19.33;48.49;101316.28;5144528;27;20050;-67
2023/07/22 00:48:48;;;;;;;7.10;5.50;;;;;;;19.33;48.48;101308.13;5137411;27;20046;-67
2023/07/22 00:51:16;;;;;;;8.00;6.30;;;;;;;19.32;48.45;101318.22;5151705;27;20051;-67
2023/07/22 00:53:44;;;;;;;8.63;5.43;;;;;;;19.32;48.58;101317.38;5141024;27;20042;-67
2023/07/22 00:56:12;;;;;;;7.85;5.00;;;;;;;19.30;48.22;101320.38;5144184;27;20121;-67
2023/07/22 00:58:40;;;;;;;7.80;5.10;;;;;;;19.31;48.59;101316.56;5139385;27;20048;-68
2023/07/22 01:01:08;;;;;;;7.00;5.50;;;;;;;19.29;48.53;101316.00;5143100;28;20482;-66
2023/07/22 01:03:35;;;;;;;8.20;5.10;;;;;;;19.29;48.44;101316.00;5133830;27;20227;-67
2023/07/22 01:06:05;;;;;;;8.90;5.72;;;;;;;19.30;48.60;101316.84;5143370;28;20100;-67
2023/07/22 01:08:33;;;;;;;11.85;6.88;;;;;;;19.28;48.40;101316.28;5143760;27;20047;-67
2023/07/22 01:11:01;;;;;;;8.18;5.78;;;;;;;19.27;48.37;101307.28;5142280;27;20532;-67
2023/07/22 01:13:28;;;;;;;7.65;5.40;;;;;;;19.27;48.58;101311.91;5144234;27;20047;-67
2023/07/22 01:15:56;;;;;;;8.07;5.47;;;;;;;19.27;48.52;101311.91;5144377;27;20047;-66
2023/07/22 01:18:24;;;;;;;8.63;6.05;;;;;;;19.26;48.55;101308.38;5142291;27;20084;-67
2023/07/22 01:20:52;;;;;;;8.25;5.97;;;;;;;19.26;48.47;101310.28;5139455;28;20055;-67
2023/07/22 01:23:21;;;;;;;8.13;5.35;;;;;;;19.18;48.50;101296.09;5141424;28;20077;-67
2023/07/22 01:25:50;;;;;;;7.78;5.75;;;;;;;19.25;48.66;101309.47;5140086;28;20265;-67
2023/07/22 01:28:17;;;;;;;8.68;6.13;;;;;;;19.24;48.62;101312.47;5145180;27;20450;-67
2023/07/22 01:30:45;;;;;;;9.07;5.43;;;;;;;19.24;48.61;101298.84;5143657;28;20063;-66
2023/07/22 01:33:13;;;;;;;8.38;5.90;;;;;;;19.23;48.71;101298.00;5136945;28;20047;-67
2023/07/22 01:35:42;;;;;;;7.80;5.32;;;;;;;19.23;48.63;101300.75;5140976;28;20537;-67
2023/07/22 01:38:09;;;;;;;6.53;5.07;;;;;;;19.22;48.78;101287.38;5143178;27;20069;-66
2023/07/22 01:40:39;;;;;;;9.85;5.50;;;;;;;19.21;48.73;101297.47;5143961;27;20047;-66
2023/07/22 01:43:06;;;;;;;6.82;5.25;;;;;;;19.21;48.89;101291.19;5142891;27;20036;-67
2023/07/22 01:45:34;;;;;;;7.10;5.40;;;;;;;19.21;48.98;101280.28;5146940;27;20051;-67
2023/07/22 01:48:02;;;;;;;7.90;5.68;;;;;;;19.19;49.05;101286.00;5145810;27;20055;-67
2023/07/22 01:50:30;;;;;;;9.75;5.90;;;;;;;19.18;49.28;101293.38;5142810;27;20047;-67
2023/07/22 01:52:57;;;;;;;7.72;5.85;;;;;;;19.18;49.28;101290.63;5147928;27;20047;-67
2023/07/22 01:55:25;;;;;;;7.40;5.15;;;;;;;19.17;49.42;101283.56;5146396;27;20088;-67
2023/07/22 01:57:55;;;;;;;10.40;5.38;;;;;;;19.17;49.60;101272.66;5147584;27;20131;-67
2023/07/22 02:00:23;;;;;;;7.88;5.28;;;;;;;19.16;49.50;101286.53;5141636;27;20047;-67
2023/07/22 02:02:52;;;;;;;7.82;5.10;;;;;;;19.09;49.76;101278.63;5147599;27;20099;-67
2023/07/22 02:05:20;;;;;;;9.35;5.75;;;;;;;19.14;49.85;101283.28;5141744;27;20043;-67
2023/07/22 02:07:48;;;;;;;8.23;5.60;;;;;;;19.14;49.75;101286.00;5143183;27;20095;-67
2023/07/22 02:10:16;;;;;;;7.90;5.18;;;;;;;19.12;49.92;101280.00;5145190;27;20058;-68
2023/07/22 02:12:44;;;;;;;7.50;5.45;;;;;;;19.11;50.24;101287.34;5146143;27;20066;-67
2023/07/22 02:15:13;;;;;;;7.00;5.32;;;;;;;19.10;50.11;101287.63;5146829;27;20047;-67
2023/07/22 02:17:41;;;;;;;6.40;5.40;;;;;;;19.10;49.97;101282.16;5141660;27;20058;-67
2023/07/22 02:20:09;;;;;;;6.85;5.35;;;;;;;19.10;50.06;101282.16;5143787;27;20055;-68
2023/07/22 02:22:37;;;;;;;6.53;5.07;;;;;;;19.08;50.26;101289.78;5147362;27;20040;-68
2023/07/22 02:25:07;;;;;;;8.05;5.47;;;;;;;19.07;50.19;101278.06;5145442;27;20100;-68
2023/07/22 02:27:35;;;;;;;7.75;5.05;;;;;;;19.05;50.10;101276.75;5142468;27;20053;-68
2023/07/22 02:30:04;;;;;;;8.05;5.53;;;;;;;19.04;50.16;101270.47;5147419;27;20047;-67
2023/07/22 02:32:33;;;;;;;9.05;5.93;;;;;;;19.04;50.31;101275.09;5139025;27;20387;-68
2023/07/22 02:35:01;;;;;;;11.52;5.90;;;;;;;19.02;50.35;101280.81;5140949;27;20092;-68
2023/07/22 02:37:29;;;;;;;7.82;5.47;;;;;;;19.02;50.44;101280.00;5142089;27;20047;-68
2023/07/22 02:39:57;;;;;;;8.15;5.75;;;;;;;19.02;50.50;101271.81;5146525;27;20392;-68
2023/07/22 02:42:24;;;;;;;8.15;5.65;;;;;;;19.00;50.55;101274.81;5144937;27;20042;-68
2023/07/22 02:44:52;;;;;;;8.25;5.78;;;;;;;19.00;50.51;101272.09;5143995;27;20261;-68
2023/07/22 02:47:20;;;;;;;9.68;6.25;;;;;;;19.00;50.41;101276.72;5144363;27;20160;-67
2023/07/22 02:49:49;;;;;;;9.20;5.82;;;;;;;18.98;50.43;101268.00;5145254;27;20092;-66
2023/07/22 02:52:17;;;;;;;7.35;5.70;;;;;;;18.96;50.28;101268.25;5146514;27;20046;-66
2023/07/22 02:55:06;;;;;;;9.27;5.90;;;;;;;18.96;50.52;101272.88;5147650;27;20095;-66
2023/07/22 02:57:34;;;;;;;9.90;5.95;;;;;;;18.95;50.57;101271.25;5144918;27;20067;-67
2023/07/22 03:00:07;;;;;;;7.03;5.53;;;;;;;18.95;50.35;101268.53;5147531;27;20043;-67
2023/07/22 03:02:35;;;;;;;11.02;6.05;;;;;;;18.94;50.32;101264.97;5146022;27;20526;-66
2023/07/22 03:05:07;;;;;;;7.30;5.60;;;;;;;18.94;50.45;101264.16;5141135;27;20043;-67
2023/07/22 03:07:36;;;;;;;7.97;6.20;;;;;;;18.92;50.29;101272.59;5138391;27;20068;-67
2023/07/22 03:10:04;;;;;;;7.90;5.40;;;;;;;18.93;50.59;101273.41;5146459;27;20060;-66
2023/07/22 03:12:32;;;;;;;8.05;5.78;;;;;;;18.92;50.41;101271.78;5146351;27;20043;-66
2023/07/22 03:15:00;;;;;;;7.78;6.20;;;;;;;18.91;50.52;101270.97;5139912;27;20050;-66
2023/07/22 03:17:28;;;;;;;7.15;5.15;;;;;;;18.91;50.53;101278.31;5141517;27;20115;-67
2023/07/22 03:19:56;;;;;;;8.27;5.95;;;;;;;18.90;50.59;101272.06;5147574;27;20051;-67
2023/07/22 03:22:25;;;;;;;10.07;5.53;;;;;;;18.87;50.49;101274.50;5138823;27;20111;-66
2023/07/22 03:24:53;;;;;;;7.05;5.55;;;;;;;18.89;50.39;101291.38;5145310;27;20088;-68
2023/07/22 03:27:22;;;;;;;8.07;5.65;;;;;;;18.87;50.62;101290.84;5143270;27;20065;-67
2023/07/22 03:29:50;;;;;;;7.80;5.63;;;;;;;18.87;50.80;101285.38;5146231;27;20064;-67
2023/07/22 03:32:17;;;;;;;7.43;5.82;;;;;;;18.86;50.64;101284.56;5148410;27;20073;-67
2023/07/22 03:34:45;;;;;;;8.65;6.03;;;;;;;18.84;50.46;101286.72;5145251;27;20508;-66
2023/07/22 03:37:14;;;;;;;8.88;6.20;;;;;;;18.84;50.53;101292.19;5141566;27;20047;-67
2023/07/22 03:39:43;;;;;;;8.43;6.15;;;;;;;18.82;50.60;101287.00;5145066;27;20143;-67
2023/07/22 03:42:11;;;;;;;9.32;5.63;;;;;;;18.81;50.66;101285.38;5145185;27;20076;-67
2023/07/22 03:44:40;;;;;;;12.45;6.00;;;;;;;18.81;50.48;101292.72;5143975;27;20121;-67
2023/07/22 03:47:08;;;;;;;8.55;5.97;;;;;;;18.81;50.58;101295.44;5142865;27;20504;-66
2023/07/22 03:49:36;;;;;;;8.63;5.95;;;;;;;18.79;50.66;101292.16;5144242;27;20063;-67
2023/07/22 03:52:04;;;;;;;7.47;6.22;;;;;;;18.78;50.61;101295.97;5142570;27;20393;-68
2023/07/22 03:54:32;;;;;;;10.55;6.90;;;;;;;18.77;50.69;101292.44;5145772;27;20042;-68
2023/07/22 03:57:01;;;;;;;9.25;6.45;;;;;;;18.76;50.55;101293.50;5143694;27;20038;-68
2023/07/22 03:59:29;;;;;;;9.02;5.80;;;;;;;18.75;50.70;101289.16;5135282;27;20058;-68
2023/07/22 04:02:01;;;;;;;8.80;5.90;;;;;;;18.74;50.68;101292.13;4914204;27;10001010;-70
2023/07/22 04:04:28;;;;;;;7.40;5.70;;;;;;;18.74;50.70;101281.25;5141471;27;20079;-70
2023/07/22 04:06:56;;;;;;;11.65;6.40;;;;;;;18.73;50.59;101279.59;5134940;27;20039;-70
2023/07/22 04:09:24;;;;;;;13.23;6.40;;;;;;;18.72;50.65;101283.41;5143224;27;20047;-70
2023/07/22 04:11:53;;;;;;;8.65;6.20;;;;;;;18.71;50.97;101292.66;5141534;27;20043;-70
2023/07/22 04:14:22;;;;;;;9.48;6.15;;;;;;;18.70;50.77;101291.84;5143237;27;20476;-70
2023/07/22 04:16:50;;;;;;;7.93;6.28;;;;;;;18.69;50.75;101279.31;5141544;27;20039;-71
2023/07/22 04:19:18;;;;;;;9.75;6.22;;;;;;;18.67;50.72;101278.75;5143103;27;20613;-70
2023/07/22 04:21:46;;;;;;;8.32;6.55;;;;;;;18.66;50.92;101288.03;5138489;27;20051;-70
2023/07/22 04:24:14;;;;;;;9.23;6.15;;;;;;;18.66;50.86;101288.03;5143166;27;20073;-71
2023/07/22 04:26:43;;;;;;;8.98;5.85;;;;;;;18.64;50.75;101287.47;5141861;27;20039;-70
2023/07/22 04:29:12;;;;;;;9.07;5.75;;;;;;;18.63;50.96;101291.25;5142710;27;20080;-70
2023/07/22 04:31:41;;;;;;;12.75;6.00;;;;;;;18.63;50.85;101287.72;5141777;27;20653;-70
2023/07/22 04:34:11;;;;;;;8.73;6.50;;;;;;;18.61;50.76;101287.16;5138971;27;20050;-70
2023/07/22 04:36:39;;;;;;;10.23;6.47;;;;;;;18.61;50.92;101290.72;5136235;27;20082;-70
2023/07/22 04:39:07;;;;;;;9.27;5.88;;;;;;;18.57;50.79;101286.84;5142473;27;20043;-72
2023/07/22 04:41:35;;;;;;;10.15;6.75;;;;;;;18.59;50.92;101300.19;5142151;27;20054;-71
2023/07/22 04:44:03;;;;;;;7.72;5.10;;;;;;;18.57;50.79;101295.00;5142519;27;20108;-71
2023/07/22 04:46:31;;;;;;;9.02;6.35;;;;;;;18.57;51.06;101297.75;5129654;27;20047;-69
2023/07/22 04:49:01;;;;;;;9.88;6.25;;;;;;;18.56;50.75;101292.56;5143828;27;20408;-69
2023/07/22 04:51:29;;;;;;;8.93;6.07;;;;;;;18.56;50.76;101290.66;5143214;27;20402;-69
2023/07/22 04:53:56;;;;;;;9.70;5.85;;;;;;;18.57;50.68;101299.63;5141113;27;20059;-67
2023/07/22 04:56:24;;;;;;;9.23;6.25;;;;;;;18.53;50.82;101297.44;5140441;27;20047;-66
2023/07/22 04:58:52;;;;;;;9.75;6.20;;;;;;;18.46;50.78;101282.44;5136196;27;20071;-64
2023/07/22 05:01:20;;;;;;;9.13;6.53;;;;;;;18.52;50.63;101298.53;5142130;27;20051;-67
2023/07/22 05:03:48;;;;;;;11.88;5.97;;;;;;;18.44;51.03;101282.69;5142414;27;20047;-68
2023/07/22 05:06:17;;;;;;;10.82;6.47;;;;;;;18.53;50.89;101305.59;5141534;27;20379;-68
2023/07/22 05:08:45;;;;;;;9.23;5.80;;;;;;;18.54;50.96;101301.00;5136007;27;20048;-68
2023/07/22 05:11:13;;;;;;;7.45;5.55;;;;;;;18.52;51.07;101306.69;5136565;27;20054;-68
2023/07/22 05:13:41;;;;;;;9.82;5.63;;;;;;;18.53;51.24;101300.16;5142624;27;20377;-67
2023/07/22 05:16:08;;;;;;;8.02;6.13;;;;;;;18.53;51.11;101297.44;5142590;27;20076;-67
2023/07/22 05:18:38;;;;;;;9.07;6.35;;;;;;;18.53;51.31;101302.06;5143588;27;20046;-67
2023/07/22 05:21:06;;;;;;;9.18;5.85;;;;;;;18.51;51.14;101305.06;5147874;27;20043;-67
2023/07/22 05:23:35;;;;;;;8.90;6.30;;;;;;;18.52;51.18;101305.88;5142704;27;20047;-67
2023/07/22 05:26:03;;;;;;;10.40;6.88;;;;;;;18.53;51.20;101307.50;5141265;27;20058;-68
2023/07/22 05:28:31;;;;;;;7.03;5.72;;;;;;;18.52;51.30;101309.41;5143999;27;20162;-68
2023/07/22 05:30:59;;;;;;;9.80;5.68;;;;;;;18.53;51.45;101307.50;5146297;27;20039;-68
2023/07/22 05:33:27;;;;;;;10.32;5.90;;;;;;;18.52;51.31;101306.69;5145649;27;20525;-67
2023/07/22 05:35:54;;;;;;;8.27;6.00;;;;;;;18.53;51.47;101313.78;5157083;27;20096;-67
2023/07/22 05:38:22;;;;;;;8.15;6.28;;;;;;;18.53;51.27;101312.97;5143823;27;20069;-67
2023/07/22 05:40:52;;;;;;;10.85;6.22;;;;;;;18.52;51.54;101308.59;5146549;27;20081;-67
2023/07/22 05:43:20;;;;;;;10.02;5.90;;;;;;;18.51;51.44;101313.22;5145914;27;20054;-68
2023/07/22 05:45:48;;;;;;;9.27;5.65;;;;;;;18.52;51.68;101311.31;5141605;27;20092;-68
2023/07/22 05:48:16;;;;;;;9.02;5.60;;;;;;;18.52;51.45;101303.16;5144422;27;20116;-67
2023/07/22 05:50:43;;;;;;;10.65;6.85;;;;;;;18.51;51.84;101305.06;5146369;27;20043;-66
2023/07/22 05:53:11;;;;;;;7.45;5.63;;;;;;;18.52;51.67;101300.44;5142522;27;20484;-67
2023/07/22 05:55:39;;;;;;;8.65;6.25;;;;;;;18.51;51.84;101299.63;5146283;27;20339;-69
2023/07/22 05:58:17;;;;;;;9.23;6.22;;;;;;;18.51;51.91;101306.97;5143948;27;20043;-66
2023/07/22 06:00:45;;;;;;;7.40;5.60;;;;;;;18.51;51.72;101302.34;5144096;27;20042;-66
2023/07/22 06:03:13;;;;;;;7.43;5.35;;;;;;;18.51;51.71;101296.88;5143666;27;20047;-67
2023/07/22 06:05:40;;;;;;;11.20;5.88;;;;;;;18.51;51.98;101298.78;5145342;27;20484;-66
2023/07/22 06:08:08;;;;;;;8.70;6.30;;;;;;;18.50;51.93;101297.97;5142792;27;20035;-65
2023/07/22 06:10:37;;;;;;;8.00;5.70;;;;;;;18.42;51.66;101279.41;5143999;27;20066;-65
2023/07/22 06:13:05;;;;;;;12.30;6.00;;;;;;;18.51;51.87;101291.44;5145924;27;20045;-70
2023/07/22 06:15:35;;;;;;;8.02;5.30;;;;;;;18.51;52.11;101294.16;5147071;27;20047;-66
2023/07/22 06:18:03;;;;;;;9.70;5.85;;;;;;;18.53;52.04;101296.63;5143317;27;20043;-66
2023/07/22 06:20:31;;;;;;;8.38;5.50;;;;;;;18.53;52.13;101291.19;5140785;27;20054;-65
2023/07/22 06:22:59;;;;;;;11.77;6.90;;;;;;;18.53;52.07;101289.28;5144742;27;20039;-66
2023/07/22 06:25:26;;;;;;;8.63;6.00;;;;;;;18.48;52.00;101274.81;5135771;27;20051;-65
2023/07/22 06:27:54;;;;;;;9.65;5.50;;;;;;;18.56;52.02;101293.38;5141968;27;20047;-66
2023/07/22 06:30:22;;;;;;;8.50;6.13;;;;;;;18.57;52.50;101289.56;5141745;28;20092;-67
2023/07/22 06:32:51;;;;;;;8.07;5.70;;;;;;;18.57;52.32;101286.84;5138514;27;20120;-66
2023/07/22 06:35:19;;;;;;;10.18;5.93;;;;;;;18.59;52.74;101295.56;5141527;27;20039;-67
2023/07/22 06:37:47;;;;;;;8.68;6.05;;;;;;;18.60;52.50;101288.22;5142820;27;20077;-67
2023/07/22 06:40:15;;;;;;;8.57;6.03;;;;;;;18.60;52.50;101288.22;5143504;28;20077;-67
2023/07/22 06:42:43;;;;;;;8.20;5.53;;;;;;;18.60;52.73;101297.22;5142483;28;20100;-67
2023/07/22 06:45:11;;;;;;;9.15;5.50;;;;;;;18.59;52.41;101301.00;5144428;27;20047;-67
2023/07/22 06:47:39;;;;;;;11.43;6.85;;;;;;;18.59;52.73;101290.13;5143645;27;20053;-67
2023/07/22 06:50:08;;;;;;;9.93;5.60;;;;;;;18.60;52.49;101286.31;5140235;27;20047;-66
2023/07/22 06:52:36;;;;;;;10.52;5.05;;;;;;;18.62;52.60;101286.91;5144121;27;20587;-66
2023/07/22 06:55:05;;;;;;;12.57;5.55;;;;;;;18.62;52.44;101286.91;5141117;27;20047;-66
2023/07/22 06:57:33;;;;;;;9.88;5.50;;;;;;;18.64;52.52;101281.19;5142584;27;20054;-66
2023/07/22 07:00:01;;;;;;;9.48;5.85;;;;;;;18.65;52.84;101282.84;5141984;28;20047;-66
2023/07/22 07:02:29;;;;;;;10.02;5.60;;;;;;;18.64;52.58;101279.28;5143539;27;20073;-65
2023/07/22 07:04:57;;;;;;;8.93;6.43;;;;;;;18.66;52.87;101284.47;5141727;27;20069;-65
2023/07/22 07:07:26;;;;;;;11.90;5.53;;;;;;;18.78;53.27;101276.91;5138156;27;20039;-65
2023/07/22 07:09:54;;;;;;;11.60;5.65;;;;;;;18.77;52.86;101276.09;5141838;28;20039;-66
2023/07/22 07:12:22;;;;;;;6.97;5.65;;;;;;;18.75;52.73;101270.09;5143269;28;20054;-65
2023/07/22 07:14:51;;;;;;;12.48;6.75;;;;;;;18.75;53.34;101274.72;5144146;27;20115;-66
2023/07/22 07:17:19;;;;;;;10.70;5.25;;;;;;;18.74;53.50;101273.06;5142952;27;20047;-67
2023/07/22 07:19:46;;;;;;;9.88;5.88;;;;;;;18.74;53.63;101273.06;5140532;27;20335;-67
2023/07/22 07:22:14;;;;;;;7.90;5.00;;;;;;;18.74;53.44;101264.91;5144965;28;20047;-67
2023/07/22 07:24:43;;;;;;;8.52;5.45;;;;;;;18.78;53.82;101266.00;5102456;27;1094234;-67
2023/07/22 07:27:11;;;;;;;9.02;5.18;;;;;;;18.81;53.70;101263.56;5143632;27;20073;-67
2023/07/22 07:29:39;;;;;;;8.82;5.55;;;;;;;18.83;53.44;101268.75;5141558;27;20062;-69
2023/07/22 07:32:21;;;;;;;15.40;6.60;;;;;;;18.83;55.12;101263.31;5145950;27;20043;-66
2023/07/22 07:34:49;;;;;;;12.77;7.05;;;;;;;18.86;58.25;101270.94;5145240;27;20050;-65
2023/07/22 07:37:17;;;;;;;15.23;7.88;;;;;;;18.63;59.10;101268.66;5142469;27;20107;-65
2023/07/22 07:39:46;;;;;;;15.45;7.90;;;;;;;18.58;59.10;101280.31;5138246;27;20066;-65
2023/07/22 07:42:14;;;;;;;15.85;7.80;;;;;;;18.56;59.32;101271.59;5146590;27;20043;-66
2023/07/22 07:44:41;;;;;;;15.70;7.35;;;;;;;18.57;59.91;101275.97;5146378;27;20043;-69
2023/07/22 07:47:09;;;;;;;15.05;8.45;;;;;;;18.57;59.84;101278.69;5144784;27;20043;-68
2023/07/22 07:49:37;;;;;;;11.93;7.60;;;;;;;18.60;59.85;101280.06;5140188;27;20047;-67
2023/07/22 07:52:06;;;;;;;17.23;7.82;;;;;;;18.62;59.68;101275.19;5143423;27;20043;-68
2023/07/22 07:54:34;;;;;;;17.92;8.02;;;;;;;18.63;59.62;101283.09;5144477;27;20047;-69
2023/07/22 07:57:03;;;;;;;17.67;6.93;;;;;;;18.85;59.04;101270.13;5142274;27;20039;-68
2023/07/22 07:59:31;;;;;;;16.35;7.30;;;;;;;18.88;58.89;101281.56;5139827;27;20044;-69
2023/07/22 08:01:59;;;;;;;15.32;5.97;;;;;;;18.85;58.44;101272.03;5141037;27;20043;-69
2023/07/22 08:04:27;;;;;;;11.73;6.15;;;;;;;18.92;58.32;101280.78;5139038;27;20055;-67
2023/07/22 08:06:55;;;;;;;13.80;5.60;;;;;;;18.91;58.17;101276.41;5141610;27;20480;-69
2023/07/22 08:09:23;;;;;;;9.48;5.88;;;;;;;19.00;57.79;101280.25;5139704;27;20191;-68
2023/07/22 08:11:51;;;;;;;9.10;5.95;;;;;;;18.99;57.58;101281.34;5138292;27;20104;-69
2023/07/22 08:14:20;;;;;;;9.20;5.18;;;;;;;18.99;57.76;101284.06;5145233;27;20047;-69
2023/07/22 08:16:47;;;;;;;10.60;5.90;;;;;;;19.27;57.31;101276.50;5144660;27;20100;-70
2023/07/22 08:19:15;;;;;;;10.43;4.65;;;;;;;19.38;57.58;101281.69;5144689;27;20080;-71
2023/07/22 08:21:43;;;;;;;9.13;4.93;;;;;;;19.24;56.64;101277.03;5145259;27;20039;-70
2023/07/22 08:24:11;;;;;;;12.50;5.40;;;;;;;19.15;56.51;101277.56;5141235;27;20088;-69
2023/07/22 08:26:39;;;;;;;10.10;5.15;;;;;;;19.12;56.63;101280.81;5144640;27;20050;-69
2023/07/22 08:29:06;;;;;;;9.85;4.85;;;;;;;19.11;56.86;101281.91;5142723;27;20403;-68
2023/07/22 08:31:36;;;;;;;8.45;4.75;;;;;;;19.12;56.75;101280.81;5143580;27;20047;-68
2023/07/22 08:34:04;;;;;;;10.70;4.22;;;;;;;19.14;56.90;101275.91;5138301;27;20178;-68
2023/07/22 08:36:31;;;;;;;9.43;5.18;;;;;;;19.16;56.87;101281.91;5138081;27;20069;-68
2023/07/22 08:38:59;;;;;;;9.88;4.47;;;;;;;19.22;56.82;101281.94;5142661;27;20072;-68
2023/07/22 08:41:28;;;;;;;8.43;4.82;;;;;;;19.22;56.55;101281.94;5143554;27;20072;-68
2023/07/22 08:44:00;;;;;;;11.02;4.00;;;;;;;19.30;56.58;101281.41;5135028;27;20047;-68
2023/07/22 08:46:29;;;;;;;6.68;3.95;;;;;;;19.32;56.30;101290.94;5145934;27;20047;-68
2023/07/22 08:49:01;;;;;;;7.57;4.55;;;;;;;19.27;56.38;101290.94;5146357;27;20503;-68
2023/07/22 08:51:30;;;;;;;7.80;4.65;;;;;;;19.39;56.46;101288.78;5141717;27;20099;-68
2023/07/22 08:53:58;;;;;;;8.38;4.18;;;;;;;19.34;56.29;101277.88;5142417;27;20379;-68
2023/07/22 08:56:39;;;;;;;8.57;4.18;;;;;;;19.36;56.42;101283.88;5138185;27;20464;-68
2023/07/22 08:59:07;;;;;;;8.00;4.18;;;;;;;19.49;56.34;101290.72;5141717;27;20044;-68
2023/07/22 09:01:35;;;;;;;6.80;3.88;;;;;;;19.46;56.30;101289.34;5136189;27;20051;-68
2023/07/22 09:04:06;;;;;;;6.75;3.88;;;;;;;19.45;56.33;101286.88;5145237;27;20059;-68
2023/07/22 09:06:34;;;;;;;5.38;3.88;;;;;;;19.49;56.34;101287.97;5141743;27;20052;-68
2023/07/22 09:09:07;;;;;;;7.60;4.25;;;;;;;19.48;56.04;101286.34;5135895;28;20046;-68
2023/07/22 09:11:35;;;;;;;7.38;3.85;;;;;;;19.49;56.15;101285.25;5142148;27;20043;-67
2023/07/22 09:14:04;;;;;;;7.38;3.78;;;;;;;19.49;56.31;101283.34;5146066;27;20055;-67
2023/07/22 09:16:32;;;;;;;8.93;4.40;;;;;;;19.55;56.26;101286.13;5144174;27;20051;-68
2023/07/22 09:19:01;;;;;;;6.70;4.00;;;;;;;19.57;56.38;101284.75;5144739;27;20058;-67
2023/07/22 09:21:30;;;;;;;8.98;3.70;;;;;;;19.62;56.35;101286.66;5142226;27;20051;-68
2023/07/22 09:23:58;;;;;;;6.65;4.03;;;;;;;19.57;55.86;101276.56;5141718;27;20108;-67
2023/07/22 09:26:26;;;;;;;9.68;4.10;;;;;;;19.64;55.94;101271.66;5142926;27;20053;-67
2023/07/22 09:28:56;;;;;;;8.43;4.30;;;;;;;19.68;56.23;101270.03;5137710;27;20050;-68
2023/07/22 09:31:25;;;;;;;6.97;3.92;;;;;;;19.74;56.15;101270.84;5137576;28;20051;-68
2023/07/22 09:33:54;;;;;;;7.28;4.22;;;;;;;19.74;56.09;101268.94;5144639;28;20077;-67
2023/07/22 09:36:22;;;;;;;7.40;3.65;;;;;;;19.74;56.24;101268.13;5136202;27;20468;-67
2023/07/22 09:39:03;;;;;;;8.68;4.03;;;;;;;19.78;56.03;101267.31;5144621;27;20047;-68
2023/07/22 09:41:31;;;;;;;7.47;3.85;;;;;;;19.80;56.05;101267.84;5135678;28;20054;-69
2023/07/22 09:44:03;;;;;;;5.65;3.88;;;;;;;19.84;55.99;101270.84;5144534;28;20043;-69
2023/07/22 09:46:33;;;;;;;6.03;3.65;;;;;;;19.89;55.80;101275.50;5144630;28;20090;-69
2023/07/22 09:49:05;;;;;;;5.68;3.72;;;;;;;19.83;55.83;101261.84;5142229;28;20071;-68
2023/07/22 09:51:34;;;;;;;5.47;3.40;;;;;;;19.91;55.72;101268.69;5143439;28;20066;-68
2023/07/22 09:54:08;;;;;;;5.22;3.35;;;;;;;19.90;55.47;101267.03;5144670;28;20488;-69
2023/07/22 09:56:45;;;;;;;6.72;3.67;;;;;;;19.83;55.58;101258.31;5135333;28;20127;-69
2023/07/22 09:59:13;;;;;;;7.88;3.38;;;;;;;19.91;55.65;101265.13;5141978;28;20039;-69
2023/07/22 10:01:42;;;;;;;6.15;3.50;;;;;;;19.93;55.78;101266.50;5133506;28;20050;-69
2023/07/22 10:04:11;;;;;;;6.53;3.15;;;;;;;19.97;55.47;101274.94;5145903;27;20047;-69
2023/07/22 10:06:40;;;;;;;6.53;2.97;;;;;;;20.00;55.32;101271.66;5144320;27;20048;-68
2023/07/22 10:09:12;;;;;;;6.25;2.90;;;;;;;20.06;55.39;101273.28;5143127;27;20100;-68
2023/07/22 10:11:40;;;;;;;4.20;2.47;;;;;;;20.08;55.39;101271.94;5143739;27;20065;-69
2023/07/22 10:14:08;;;;;;;6.32;3.70;;;;;;;20.08;55.00;101273.84;5144935;27;20572;-69
2023/07/22 10:16:37;;;;;;;6.28;2.90;;;;;;;20.08;55.01;101276.56;5140672;27;20047;-68
2023/07/22 10:19:06;;;;;;;6.30;3.05;;;;;;;20.06;54.88;101274.13;5146368;27;20377;-67
2023/07/22 10:21:35;;;;;;;4.57;2.60;;;;;;;19.98;54.95;101257.47;5137590;27;20108;-68
2023/07/22 10:24:04;;;;;;;4.78;2.83;;;;;;;20.06;55.08;101268.66;5139230;27;20047;-68
2023/07/22 10:26:33;;;;;;;5.05;2.70;;;;;;;20.04;55.48;101250.94;5146518;27;20090;-69
2023/07/22 10:29:14;;;;;;;5.53;2.45;;;;;;;20.10;54.95;101267.00;5137470;27;20085;-70
2023/07/22 10:31:42;;;;;;;3.45;2.47;;;;;;;20.10;55.08;101263.47;5143864;27;20530;-70
2023/07/22 10:34:10;;;;;;;7.13;3.50;;;;;;;20.15;55.14;101277.09;5139622;27;20058;-70
2023/07/22 10:36:38;;;;;;;5.45;2.92;;;;;;;20.21;55.13;101259.63;5141147;27;20040;-69
2023/07/22 10:39:07;;;;;;;5.47;3.17;;;;;;;20.27;54.82;101254.97;5147890;27;20127;-68
2023/07/22 10:41:39;;;;;;;6.50;3.35;;;;;;;20.26;54.98;101256.88;5140733;27;20039;-69
2023/07/22 10:44:12;;;;;;;6.88;2.88;;;;;;;20.29;54.71;101261.78;5147197;27;20039;-67
2023/07/22 10:46:43;;;;;;;4.63;2.58;;;;;;;20.29;54.81;101259.06;5147609;27;20047;-67
2023/07/22 10:49:12;;;;;;;4.10;2.58;;;;;;;20.30;54.41;101251.69;5146961;27;20066;-68
2023/07/22 10:51:41;;;;;;;7.63;3.20;;;;;;;20.32;54.56;101253.06;5146544;27;20104;-68
2023/07/22 10:54:13;;;;;;;5.03;2.78;;;;;;;20.31;54.32;101251.41;5141986;27;20043;-68
2023/07/22 10:56:44;;;;;;;7.22;2.63;;;;;;;20.39;54.52;101248.16;5143579;27;20077;-68
2023/07/22 10:59:12;;;;;;;6.38;2.30;;;;;;;20.40;54.70;101241.59;5145418;27;20047;-68
2023/07/22 11:01:41;;;;;;;3.88;2.55;;;;;;;20.48;54.35;101251.13;5140328;27;20043;-67
2023/07/22 11:04:30;;;;;;;4.47;2.40;;;;;;;20.53;54.46;101248.38;5147373;27;20054;-68
2023/07/22 11:07:06;;;;;;;;;;;;;;;20.61;53.70;101244.25;5139662;27;20048;-68
2023/07/22 11:09:41;;;;;;;4.40;2.20;;;;;;;20.58;53.76;101251.09;5146170;27;19919;-68
2023/07/22 11:12:15;;;;;;;3.38;2.22;;;;;;;20.57;53.29;101251.38;5141355;27;20049;-68
2023/07/22 11:14:48;;;;;;;3.80;2.75;;;;;;;20.55;53.35;101248.94;5145784;27;20047;-68
2023/07/22 11:17:17;;;;;;;3.50;1.80;;;;;;;20.54;53.13;101244.56;5144583;27;20047;-68
2023/07/22 11:19:46;;;;;;;5.50;2.60;;;;;;;20.60;53.46;101251.63;5142691;27;20088;-68
2023/07/22 11:22:14;;;;;;;5.05;1.95;;;;;;;20.63;53.15;101248.34;5144343;27;20059;-68
2023/07/22 11:24:42;;;;;;;4.50;2.28;;;;;;;20.64;52.45;101233.59;5144883;27;20047;-70
2023/07/22 11:27:11;;;;;;;8.65;2.85;;;;;;;20.69;52.55;101225.38;5143949;27;20051;-68
2023/07/22 11:29:39;;;;;;;5.13;1.90;;;;;;;20.72;52.48;101229.47;5144366;27;20043;-67
2023/07/22 11:32:15;;;;;;;4.88;2.17;;;;;;;20.73;52.72;101231.91;5146993;27;20047;-66